createdAt,value
2022-10-23T00:00:27.217Z,38.69
2022-10-23T00:00:57.215Z,38.67
2022-10-23T00:01:27.245Z,38.68
2022-10-23T00:01:57.271Z,38.69
2022-10-23T00:02:27.379Z,38.65
2022-10-23T00:02:57.415Z,38.64
2022-10-23T00:03:27.435Z,38.69
2022-10-23T00:03:57.463Z,38.62
2022-10-23T00:04:27.498Z,38.60
2022-10-23T00:04:57.540Z,38.65
2022-10-23T00:05:27.565Z,38.65
2022-10-23T00:05:57.616Z,38.68
2022-10-23T00:06:27.646Z,38.68
2022-10-23T00:06:57.673Z,38.65
2022-10-23T00:07:27.814Z,38.68
2022-10-23T00:07:57.731Z,38.68
2022-10-23T00:08:27.751Z,38.65
2022-10-23T00:08:57.822Z,38.65
2022-10-23T00:09:27.847Z,38.65
2022-10-23T00:09:57.873Z,38.60
2022-10-23T00:10:27.950Z,38.66
2022-10-23T00:10:57.984Z,38.67
2022-10-23T00:11:28.006Z,38.69
2022-10-23T00:11:58.035Z,38.68
2022-10-23T00:12:28.063Z,38.66
2022-10-23T00:12:58.094Z,38.67
2022-10-23T00:13:28.118Z,38.68
2022-10-23T00:13:58.176Z,38.69
2022-10-23T00:14:28.174Z,38.70
2022-10-23T00:14:58.203Z,38.62
2022-10-23T00:15:28.318Z,38.65
2022-10-23T00:15:58.346Z,38.67
2022-10-23T00:16:28.374Z,38.64
2022-10-23T00:16:58.394Z,38.65
2022-10-23T00:17:28.422Z,38.65
2022-10-23T00:17:58.442Z,38.66
2022-10-23T00:18:28.473Z,38.64
2022-10-23T00:18:58.502Z,38.67
2022-10-23T00:19:28.522Z,38.66
2022-10-23T00:19:58.547Z,38.68
2022-10-23T00:20:28.594Z,38.65
2022-10-23T00:20:58.621Z,38.62
2022-10-23T00:21:28.647Z,38.65
2022-10-23T00:21:58.669Z,38.66
2022-10-23T00:22:28.697Z,38.63
2022-10-23T00:22:58.720Z,38.66
2022-10-23T00:23:28.744Z,38.64
2022-10-23T00:23:58.929Z,38.66
2022-10-23T00:24:28.843Z,38.62
2022-10-23T00:24:58.868Z,38.69
2022-10-23T00:25:28.915Z,38.62
2022-10-23T00:25:58.943Z,38.62
2022-10-23T00:26:28.963Z,38.63
2022-10-23T00:26:58.995Z,38.69
2022-10-23T00:27:29.018Z,38.62
2022-10-23T00:27:59.044Z,38.64
2022-10-23T00:28:29.078Z,38.62
2022-10-23T00:28:59.106Z,38.67
2022-10-23T00:29:29.155Z,38.63
2022-10-23T00:29:59.159Z,38.66
2022-10-23T00:30:29.218Z,38.66
2022-10-23T00:30:59.242Z,38.64
2022-10-23T00:31:29.270Z,38.68
2022-10-23T00:31:59.294Z,38.65
2022-10-23T00:32:29.392Z,38.65
2022-10-23T00:32:59.432Z,38.63
2022-10-23T00:33:29.457Z,38.63
2022-10-23T00:33:59.482Z,38.60
2022-10-23T00:34:29.507Z,38.63
2022-10-23T00:34:59.531Z,38.66
2022-10-23T00:35:29.582Z,38.62
2022-10-23T00:35:59.605Z,38.60
2022-10-23T00:36:29.632Z,38.60
2022-10-23T00:36:59.655Z,38.60
2022-10-23T00:37:29.680Z,38.65
2022-10-23T00:37:59.702Z,38.64
2022-10-23T00:38:29.724Z,38.60
2022-10-23T00:38:59.752Z,38.65
2022-10-23T00:39:29.801Z,38.60
2022-10-23T00:39:59.838Z,38.63
2022-10-23T00:40:29.883Z,38.63
2022-10-23T00:40:59.912Z,38.62
2022-10-23T00:41:29.941Z,38.60
2022-10-23T00:41:59.967Z,38.66
2022-10-23T00:42:30.077Z,38.60
2022-10-23T00:43:00.201Z,38.65
2022-10-23T00:43:30.192Z,38.67
2022-10-23T00:44:00.303Z,38.63
2022-10-23T00:44:30.413Z,38.62
2022-10-23T00:45:00.553Z,38.60
2022-10-23T00:45:30.539Z,38.66
2022-10-23T00:46:00.526Z,38.63
2022-10-23T00:46:30.640Z,38.62
2022-10-23T00:47:00.751Z,38.65
2022-10-23T00:47:30.861Z,38.65
2022-10-23T00:48:00.975Z,38.65
2022-10-23T00:48:31.081Z,38.63
2022-10-23T00:49:01.294Z,38.62
2022-10-23T00:49:33.514Z,38.62
2022-10-23T00:50:01.309Z,38.63
2022-10-23T00:50:31.442Z,38.62
2022-10-23T00:51:01.426Z,38.63
2022-10-23T00:51:31.536Z,38.60
2022-10-23T00:52:01.549Z,38.60
2022-10-23T00:52:31.568Z,38.56
2022-10-23T00:53:01.595Z,38.65
2022-10-23T00:53:31.625Z,38.66
2022-10-23T00:54:22.997Z,38.60
2022-10-23T00:54:31.689Z,38.67
2022-10-23T00:55:01.716Z,38.63
2022-10-23T00:55:31.758Z,38.65
2022-10-23T00:56:01.783Z,38.66
2022-10-23T00:56:31.813Z,38.66
2022-10-23T00:57:01.833Z,38.63
2022-10-23T00:57:31.862Z,38.66
2022-10-23T00:58:01.884Z,38.67
2022-10-23T00:58:31.906Z,38.61
2022-10-23T00:59:01.941Z,38.65
2022-10-23T00:59:31.969Z,38.66
2022-10-23T01:00:01.997Z,38.63
2022-10-23T01:00:32.073Z,38.63
2022-10-23T01:01:02.116Z,38.65
2022-10-23T01:01:32.307Z,38.63
2022-10-23T01:02:02.396Z,38.63
2022-10-23T01:02:32.423Z,38.63
2022-10-23T01:03:02.377Z,38.62
2022-10-23T01:03:32.398Z,38.67
2022-10-23T01:04:02.429Z,38.62
2022-10-23T01:04:32.450Z,38.62
2022-10-23T01:05:02.485Z,38.63
2022-10-23T01:05:32.525Z,38.66
2022-10-23T01:06:02.549Z,38.63
2022-10-23T01:06:32.570Z,38.57
2022-10-23T01:07:02.594Z,38.55
2022-10-23T01:07:32.619Z,38.57
2022-10-23T01:08:02.641Z,38.63
2022-10-23T01:08:32.673Z,38.62
2022-10-23T01:09:02.695Z,38.57
2022-10-23T01:09:32.721Z,38.60
2022-10-23T01:10:02.752Z,38.59
2022-10-23T01:10:32.783Z,38.63
2022-10-23T01:11:02.816Z,38.57
2022-10-23T01:11:32.836Z,38.59
2022-10-23T01:12:02.861Z,38.57
2022-10-23T01:12:32.888Z,38.62
2022-10-23T01:13:02.911Z,38.57
2022-10-23T01:13:32.939Z,38.57
2022-10-23T01:14:33.086Z,38.62
2022-10-23T01:15:03.109Z,38.57
2022-10-23T01:15:33.140Z,38.59
2022-10-23T01:16:03.210Z,38.60
2022-10-23T01:16:33.207Z,38.57
2022-10-23T01:17:03.231Z,38.57
2022-10-23T01:17:33.255Z,38.60
2022-10-23T01:18:03.280Z,38.56
2022-10-23T01:18:33.306Z,38.60
2022-10-23T01:19:03.327Z,38.57
2022-10-23T01:19:33.352Z,38.57
2022-10-23T01:20:03.376Z,38.59
2022-10-23T01:20:33.398Z,38.53
2022-10-23T01:21:03.446Z,38.59
2022-10-23T01:21:33.466Z,38.59
2022-10-23T01:22:03.494Z,38.59
2022-10-23T01:22:33.516Z,38.57
2022-10-23T01:23:03.546Z,38.59
2022-10-23T01:23:33.566Z,38.57
2022-10-23T01:24:03.592Z,38.63
2022-10-23T01:24:33.624Z,38.57
2022-10-23T01:25:03.638Z,38.62
2022-10-23T01:25:33.669Z,38.61
2022-10-23T01:26:03.705Z,38.60
2022-10-23T01:26:33.742Z,38.59
2022-10-23T01:27:03.761Z,38.55
2022-10-23T01:27:33.784Z,38.59
2022-10-23T01:28:03.808Z,38.60
2022-10-23T01:28:33.830Z,38.62
2022-10-23T01:29:03.863Z,38.62
2022-10-23T01:29:33.900Z,38.59
2022-10-23T01:30:03.914Z,38.56
2022-10-23T01:30:34.045Z,38.60
2022-10-23T01:31:03.978Z,38.61
2022-10-23T01:31:34.039Z,38.60
2022-10-23T01:32:04.028Z,38.57
2022-10-23T01:32:34.054Z,38.57
2022-10-23T01:33:04.079Z,38.57
2022-10-23T01:33:34.101Z,38.54
2022-10-23T01:34:04.129Z,38.57
2022-10-23T01:34:34.148Z,38.59
2022-10-23T01:35:04.269Z,38.56
2022-10-23T01:35:34.289Z,38.56
2022-10-23T01:36:04.316Z,38.57
2022-10-23T01:36:34.339Z,38.57
2022-10-23T01:37:04.369Z,38.51
2022-10-23T01:37:34.402Z,38.56
2022-10-23T01:38:04.428Z,38.57
2022-10-23T01:38:34.452Z,38.55
2022-10-23T01:39:34.595Z,38.54
2022-10-23T01:40:04.629Z,38.51
2022-10-23T01:40:34.650Z,38.56
2022-10-23T01:41:04.679Z,38.53
2022-10-23T01:41:34.701Z,38.50
2022-10-23T01:42:04.822Z,38.52
2022-10-23T01:42:34.951Z,38.50
2022-10-23T01:43:05.043Z,38.55
2022-10-23T01:43:35.160Z,38.54
2022-10-23T01:44:05.274Z,38.57
2022-10-23T01:44:35.383Z,38.49
2022-10-23T01:45:05.517Z,38.46
2022-10-23T01:45:35.519Z,38.51
2022-10-23T01:46:05.507Z,38.49
2022-10-23T01:46:35.638Z,38.46
2022-10-23T01:47:05.648Z,38.49
2022-10-23T01:47:35.742Z,38.48
2022-10-23T01:48:05.854Z,38.49
2022-10-23T01:48:35.967Z,38.50
2022-10-23T01:49:06.081Z,38.51
2022-10-23T01:49:36.094Z,38.46
2022-10-23T01:50:06.100Z,38.53
2022-10-23T01:50:36.197Z,38.49
2022-10-23T01:51:06.326Z,38.49
2022-10-23T01:51:36.425Z,38.47
2022-10-23T01:52:06.441Z,38.47
2022-10-23T01:52:36.464Z,38.47
2022-10-23T01:53:06.488Z,38.53
2022-10-23T01:53:36.514Z,38.47
2022-10-23T01:54:06.538Z,38.50
2022-10-23T01:54:36.561Z,38.50
2022-10-23T01:55:06.587Z,38.47
2022-10-23T01:55:36.673Z,38.47
2022-10-23T01:56:06.690Z,38.49
2022-10-23T01:56:36.714Z,38.47
2022-10-23T01:57:06.741Z,38.52
2022-10-23T01:57:36.772Z,38.49
2022-10-23T01:58:06.795Z,38.47
2022-10-23T01:58:36.821Z,38.46
2022-10-23T01:59:06.849Z,38.52
2022-10-23T01:59:36.876Z,38.51
2022-10-23T02:00:06.927Z,38.47
2022-10-23T02:00:36.955Z,38.44
2022-10-23T02:01:07.063Z,38.44
2022-10-23T02:01:37.191Z,38.47
2022-10-23T02:02:07.334Z,38.43
2022-10-23T02:02:37.282Z,38.49
2022-10-23T02:03:07.282Z,38.45
2022-10-23T02:03:37.308Z,38.47
2022-10-23T02:04:07.328Z,38.43
2022-10-23T02:04:37.354Z,38.53
2022-10-23T02:05:07.396Z,38.47
2022-10-23T02:05:37.419Z,38.46
2022-10-23T02:06:07.442Z,38.44
2022-10-23T02:06:37.471Z,38.48
2022-10-23T02:07:07.493Z,38.47
2022-10-23T02:07:37.515Z,38.47
2022-10-23T02:08:07.541Z,38.41
2022-10-23T02:08:37.567Z,38.50
2022-10-23T02:09:07.591Z,38.46
2022-10-23T02:09:37.623Z,38.43
2022-10-23T02:10:07.655Z,38.46
2022-10-23T02:10:37.654Z,38.47
2022-10-23T02:11:07.674Z,38.46
2022-10-23T02:11:37.707Z,38.46
2022-10-23T02:12:07.737Z,38.41
2022-10-23T02:12:37.758Z,38.53
2022-10-23T02:13:07.784Z,38.50
2022-10-23T02:13:37.805Z,38.52
2022-10-23T02:14:07.833Z,38.47
2022-10-23T02:14:37.861Z,38.51
2022-10-23T02:15:07.904Z,38.43
2022-10-23T02:15:37.933Z,38.49
2022-10-23T02:16:07.950Z,38.49
2022-10-23T02:16:37.979Z,38.49
2022-10-23T02:17:08.000Z,38.44
2022-10-23T02:17:38.032Z,38.50
2022-10-23T02:18:08.082Z,38.44
2022-10-23T02:18:38.096Z,38.46
2022-10-23T02:19:08.119Z,38.50
2022-10-23T02:19:38.139Z,38.43
2022-10-23T02:20:08.181Z,38.50
2022-10-23T02:20:38.290Z,38.44
2022-10-23T02:21:08.205Z,38.47
2022-10-23T02:21:38.227Z,38.44
2022-10-23T02:22:08.243Z,38.47
2022-10-23T02:22:38.266Z,38.46
2022-10-23T02:23:08.288Z,38.52
2022-10-23T02:23:38.314Z,38.51
2022-10-23T02:24:08.341Z,38.49
2022-10-23T02:24:38.366Z,38.44
2022-10-23T02:25:08.406Z,38.49
2022-10-23T02:25:38.441Z,38.48
2022-10-23T02:26:08.478Z,38.45
2022-10-23T02:26:38.497Z,38.43
2022-10-23T02:27:08.515Z,38.44
2022-10-23T02:27:38.543Z,38.53
2022-10-23T02:28:08.563Z,38.43
2022-10-23T02:28:38.589Z,38.49
2022-10-23T02:29:08.614Z,38.50
2022-10-23T02:29:38.647Z,38.49
2022-10-23T02:30:08.697Z,38.49
2022-10-23T02:30:38.721Z,38.49
2022-10-23T02:31:08.754Z,38.48
2022-10-23T02:31:38.786Z,38.46
2022-10-23T02:32:08.810Z,38.49
2022-10-23T02:32:38.997Z,38.47
2022-10-23T02:33:08.930Z,38.50
2022-10-23T02:33:38.979Z,38.49
2022-10-23T02:34:08.976Z,38.50
2022-10-23T02:34:38.999Z,38.49
2022-10-23T02:35:09.033Z,38.49
2022-10-23T02:35:39.061Z,38.49
2022-10-23T02:36:09.099Z,38.50
2022-10-23T02:36:39.127Z,38.48
2022-10-23T02:37:09.208Z,38.44
2022-10-23T02:37:39.520Z,38.43
2022-10-23T02:38:09.268Z,38.51
2022-10-23T02:38:39.306Z,38.49
2022-10-23T02:39:09.328Z,38.51
2022-10-23T02:39:39.353Z,38.48
2022-10-23T02:40:09.391Z,38.48
2022-10-23T02:40:39.417Z,38.50
2022-10-23T02:41:09.441Z,38.49
2022-10-23T02:41:39.463Z,38.46
2022-10-23T02:42:09.579Z,38.49
2022-10-23T02:42:39.697Z,38.47
2022-10-23T02:43:09.806Z,38.50
2022-10-23T02:43:39.930Z,38.49
2022-10-23T02:44:10.041Z,38.52
2022-10-23T02:44:40.156Z,38.48
2022-10-23T02:45:10.282Z,38.50
2022-10-23T02:46:10.348Z,38.53
2022-10-23T02:46:40.465Z,38.50
2022-10-23T02:47:10.584Z,38.51
2022-10-23T02:47:41.003Z,38.50
2022-10-23T02:48:10.750Z,38.50
2022-10-23T02:48:40.881Z,38.44
2022-10-23T02:49:10.973Z,38.51
2022-10-23T02:49:41.085Z,38.49
2022-10-23T02:50:11.220Z,38.49
2022-10-23T02:50:41.211Z,38.50
2022-10-23T02:51:11.315Z,38.51
2022-10-23T02:51:41.431Z,38.51
2022-10-23T02:52:11.451Z,38.54
2022-10-23T02:52:41.480Z,38.47
2022-10-23T02:53:11.511Z,38.48
2022-10-23T02:53:41.542Z,38.51
2022-10-23T02:54:11.569Z,38.49
2022-10-23T02:54:41.598Z,38.50
2022-10-23T02:55:11.642Z,38.50
2022-10-23T02:55:41.674Z,38.50
2022-10-23T02:56:11.693Z,38.48
2022-10-23T02:56:41.719Z,38.53
2022-10-23T02:57:11.742Z,38.50
2022-10-23T02:57:48.481Z,38.47
2022-10-23T02:58:11.815Z,38.53
2022-10-23T02:58:41.838Z,38.51
2022-10-23T02:59:11.864Z,38.51
2022-10-23T02:59:41.890Z,38.50
2022-10-23T03:00:11.927Z,38.48
2022-10-23T03:00:41.951Z,38.48
2022-10-23T03:01:12.092Z,38.50
2022-10-23T03:01:42.153Z,38.54
2022-10-23T03:02:12.190Z,38.46
2022-10-23T03:02:42.099Z,38.43
2022-10-23T03:03:12.129Z,38.50
2022-10-23T03:03:42.160Z,38.45
2022-10-23T03:04:12.214Z,38.53
2022-10-23T03:04:42.209Z,38.51
2022-10-23T03:05:12.248Z,38.44
2022-10-23T03:05:42.275Z,38.50
2022-10-23T03:06:12.300Z,38.51
2022-10-23T03:06:42.331Z,38.53
2022-10-23T03:07:12.397Z,38.46
2022-10-23T03:07:42.607Z,38.50
2022-10-23T03:08:12.527Z,38.51
2022-10-23T03:08:42.551Z,38.48
2022-10-23T03:09:12.577Z,38.53
2022-10-23T03:09:42.598Z,38.49
2022-10-23T03:10:12.644Z,38.53
2022-10-23T03:10:42.703Z,38.52
2022-10-23T03:11:12.735Z,38.50
2022-10-23T03:11:42.762Z,38.44
2022-10-23T03:12:12.788Z,38.50
2022-10-23T03:12:43.139Z,38.50
2022-10-23T03:13:12.912Z,38.43
2022-10-23T03:13:42.942Z,38.48
2022-10-23T03:14:12.963Z,38.53
2022-10-23T03:14:42.994Z,38.45
2022-10-23T03:15:13.036Z,38.51
2022-10-23T03:15:43.071Z,38.47
2022-10-23T03:16:13.104Z,38.51
2022-10-23T03:16:43.133Z,38.48
2022-10-23T03:17:13.149Z,38.51
2022-10-23T03:17:43.177Z,38.50
2022-10-23T03:18:13.202Z,38.44
2022-10-23T03:18:43.228Z,38.51
2022-10-23T03:19:13.269Z,38.47
2022-10-23T03:19:43.299Z,38.48
2022-10-23T03:20:13.301Z,38.44
2022-10-23T03:20:43.339Z,38.47
2022-10-23T03:21:13.361Z,38.43
2022-10-23T03:21:43.386Z,38.47
2022-10-23T03:22:13.404Z,38.46
2022-10-23T03:22:43.743Z,38.47
2022-10-23T03:23:13.493Z,38.50
2022-10-23T03:23:43.545Z,38.47
2022-10-23T03:24:13.570Z,38.48
2022-10-23T03:24:43.595Z,38.48
2022-10-23T03:25:13.627Z,38.50
2022-10-23T03:25:43.662Z,38.49
2022-10-23T03:26:13.685Z,38.51
2022-10-23T03:26:43.723Z,38.51
2022-10-23T03:27:13.746Z,38.48
2022-10-23T03:27:43.766Z,38.48
2022-10-23T03:28:13.787Z,38.46
2022-10-23T03:28:43.828Z,38.44
2022-10-23T03:29:13.838Z,38.50
2022-10-23T03:29:43.862Z,38.46
2022-10-23T03:30:13.890Z,38.50
2022-10-23T03:30:43.922Z,38.44
2022-10-23T03:31:13.949Z,38.50
2022-10-23T03:31:43.976Z,38.50
2022-10-23T03:32:13.997Z,38.46
2022-10-23T03:32:44.591Z,38.44
2022-10-23T03:33:14.087Z,38.50
2022-10-23T03:33:44.123Z,38.48
2022-10-23T03:34:14.143Z,38.50
2022-10-23T03:34:44.171Z,38.49
2022-10-23T03:35:14.222Z,38.47
2022-10-23T03:35:44.272Z,38.47
2022-10-23T03:36:14.271Z,38.44
2022-10-23T03:36:44.316Z,38.47
2022-10-23T03:37:14.329Z,38.47
2022-10-23T03:37:44.780Z,38.47
2022-10-23T03:38:14.453Z,38.50
2022-10-23T03:38:44.483Z,38.49
2022-10-23T03:39:14.506Z,38.48
2022-10-23T03:39:44.536Z,38.44
2022-10-23T03:40:14.563Z,38.44
2022-10-23T03:40:44.602Z,38.45
2022-10-23T03:41:14.630Z,38.49
2022-10-23T03:41:44.647Z,38.44
2022-10-23T03:42:14.762Z,38.43
2022-10-23T03:42:44.873Z,38.46
2022-10-23T03:43:14.985Z,38.44
2022-10-23T03:43:45.097Z,38.46
2022-10-23T03:44:15.209Z,38.44
2022-10-23T03:44:45.322Z,38.47
2022-10-23T03:45:15.433Z,38.45
2022-10-23T03:45:45.546Z,38.43
2022-10-23T03:46:15.660Z,38.44
2022-10-23T03:46:45.777Z,38.50
2022-10-23T03:47:15.884Z,38.46
2022-10-23T03:47:46.005Z,38.47
2022-10-23T03:48:16.116Z,38.42
2022-10-23T03:48:46.231Z,38.43
2022-10-23T03:49:16.346Z,38.43
2022-10-23T03:49:46.463Z,38.47
2022-10-23T03:50:16.601Z,38.47
2022-10-23T03:50:46.701Z,38.44
2022-10-23T03:51:16.808Z,38.45
2022-10-23T03:51:46.930Z,38.48
2022-10-23T03:52:17.034Z,38.44
2022-10-23T03:52:47.041Z,38.51
2022-10-23T03:53:17.075Z,38.48
2022-10-23T03:53:47.103Z,38.47
2022-10-23T03:54:17.127Z,38.48
2022-10-23T03:54:47.153Z,38.43
2022-10-23T03:55:17.183Z,38.44
2022-10-23T03:55:47.218Z,38.48
2022-10-23T03:56:17.238Z,38.48
2022-10-23T03:56:47.271Z,38.44
2022-10-23T03:57:17.300Z,38.50
2022-10-23T03:57:47.328Z,38.47
2022-10-23T03:58:17.355Z,38.48
2022-10-23T03:58:47.378Z,38.48
2022-10-23T03:59:17.404Z,38.45
2022-10-23T03:59:47.431Z,38.48
2022-10-23T04:00:17.463Z,38.48
2022-10-23T04:00:47.484Z,38.51
2022-10-23T04:01:17.573Z,38.53
2022-10-23T04:01:47.779Z,38.47
2022-10-23T04:02:17.863Z,38.48
2022-10-23T04:02:48.089Z,38.47
2022-10-23T04:03:17.842Z,38.46
2022-10-23T04:03:47.870Z,38.48
2022-10-23T04:04:17.900Z,38.47
2022-10-23T04:04:47.927Z,38.41
2022-10-23T04:05:17.954Z,38.47
2022-10-23T04:05:49.976Z,38.47
2022-10-23T04:06:17.992Z,38.45
2022-10-23T04:06:48.108Z,38.50
2022-10-23T04:07:18.177Z,38.48
2022-10-23T04:07:48.207Z,38.51
2022-10-23T04:08:20.159Z,38.44
2022-10-23T04:08:48.324Z,38.45
2022-10-23T04:09:18.350Z,38.50
2022-10-23T04:09:48.388Z,38.48
2022-10-23T04:10:18.418Z,38.50
2022-10-23T04:10:48.443Z,38.47
2022-10-23T04:11:18.479Z,38.45
2022-10-23T04:11:48.508Z,38.46
2022-10-23T04:12:18.536Z,38.47
2022-10-23T04:12:48.564Z,38.51
2022-10-23T04:13:18.590Z,38.47
2022-10-23T04:13:48.614Z,38.50
2022-10-23T04:14:18.643Z,38.47
2022-10-23T04:14:48.666Z,38.50
2022-10-23T04:15:18.709Z,38.48
2022-10-23T04:15:48.729Z,38.45
2022-10-23T04:16:18.756Z,38.47
2022-10-23T04:16:48.781Z,38.44
2022-10-23T04:17:18.907Z,38.47
2022-10-23T04:17:48.844Z,38.46
2022-10-23T04:18:18.873Z,38.48
2022-10-23T04:18:48.898Z,38.48
2022-10-23T04:19:18.997Z,38.51
2022-10-23T04:19:49.021Z,38.48
2022-10-23T04:20:19.046Z,38.46
2022-10-23T04:20:49.076Z,38.45
2022-10-23T04:21:19.138Z,38.44
2022-10-23T04:21:49.145Z,38.47
2022-10-23T04:22:19.172Z,38.45
2022-10-23T04:22:49.196Z,38.48
2022-10-23T04:23:19.217Z,38.51
2022-10-23T04:23:49.245Z,38.47
2022-10-23T04:24:19.271Z,38.50
2022-10-23T04:24:49.298Z,38.48
2022-10-23T04:25:19.326Z,38.50
2022-10-23T04:25:49.356Z,38.47
2022-10-23T04:26:19.395Z,38.48
2022-10-23T04:26:49.415Z,38.47
2022-10-23T04:27:19.446Z,38.44
2022-10-23T04:27:49.468Z,38.44
2022-10-23T04:28:19.493Z,38.45
2022-10-23T04:28:49.519Z,38.47
2022-10-23T04:29:19.549Z,38.45
2022-10-23T04:29:49.595Z,38.47
2022-10-23T04:30:19.615Z,38.48
2022-10-23T04:30:49.645Z,38.44
2022-10-23T04:31:19.675Z,38.45
2022-10-23T04:31:49.701Z,38.46
2022-10-23T04:32:19.789Z,38.51
2022-10-23T04:32:49.810Z,38.45
2022-10-23T04:33:19.839Z,38.47
2022-10-23T04:33:49.862Z,38.47
2022-10-23T04:34:19.890Z,38.44
2022-10-23T04:34:49.930Z,38.42
2022-10-23T04:35:19.962Z,38.44
2022-10-23T04:35:49.996Z,38.44
2022-10-23T04:36:20.033Z,38.45
2022-10-23T04:36:50.071Z,38.50
2022-10-23T04:37:20.079Z,38.40
2022-10-23T04:37:50.106Z,38.45
2022-10-23T04:38:20.136Z,38.47
2022-10-23T04:38:50.164Z,38.47
2022-10-23T04:39:20.185Z,38.45
2022-10-23T04:39:50.209Z,38.47
2022-10-23T04:40:20.231Z,38.41
2022-10-23T04:40:50.273Z,38.47
2022-10-23T04:41:20.296Z,38.45
2022-10-23T04:41:50.315Z,38.47
2022-10-23T04:42:20.517Z,38.48
2022-10-23T04:42:50.502Z,38.41
2022-10-23T04:43:20.625Z,38.45
2022-10-23T04:43:50.737Z,38.46
2022-10-23T04:44:20.858Z,38.47
2022-10-23T04:44:50.963Z,38.42
2022-10-23T04:45:21.097Z,38.48
2022-10-23T04:45:51.086Z,38.45
2022-10-23T04:46:21.202Z,38.45
2022-10-23T04:46:51.314Z,38.46
2022-10-23T04:47:21.435Z,38.45
2022-10-23T04:47:51.547Z,38.42
2022-10-23T04:48:24.446Z,38.48
2022-10-23T04:48:51.666Z,38.45
2022-10-23T04:49:21.777Z,38.50
2022-10-23T04:49:51.887Z,38.41
2022-10-23T04:50:22.015Z,38.45
2022-10-23T04:50:52.005Z,38.47
2022-10-23T04:51:22.116Z,38.46
2022-10-23T04:51:52.143Z,38.41
2022-10-23T04:52:22.147Z,38.45
2022-10-23T04:52:52.178Z,38.50
2022-10-23T04:53:22.202Z,38.50
2022-10-23T04:53:52.229Z,38.47
2022-10-23T04:54:22.264Z,38.46
2022-10-23T04:54:52.296Z,38.47
2022-10-23T04:55:22.334Z,38.45
2022-10-23T04:55:52.354Z,38.44
2022-10-23T04:56:22.381Z,38.44
2022-10-23T04:56:52.405Z,38.45
2022-10-23T04:57:22.433Z,38.50
2022-10-23T04:57:52.459Z,38.46
2022-10-23T04:58:22.483Z,38.45
2022-10-23T04:58:52.634Z,38.48
2022-10-23T04:59:22.549Z,38.48
2022-10-23T04:59:52.575Z,38.47
2022-10-23T05:00:22.622Z,38.44
2022-10-23T05:00:52.743Z,38.48
2022-10-23T05:01:22.871Z,38.43
2022-10-23T05:01:52.915Z,38.50
2022-10-23T05:02:22.938Z,38.47
2022-10-23T05:02:52.962Z,38.45
2022-10-23T05:03:22.991Z,38.47
2022-10-23T05:03:53.021Z,38.46
2022-10-23T05:04:23.045Z,38.45
2022-10-23T05:04:53.067Z,38.44
2022-10-23T05:05:23.109Z,38.48
2022-10-23T05:05:53.137Z,38.48
2022-10-23T05:06:23.163Z,38.48
2022-10-23T05:06:53.181Z,38.51
2022-10-23T05:07:23.261Z,38.46
2022-10-23T05:07:53.263Z,38.48
2022-10-23T05:08:23.285Z,38.49
2022-10-23T05:08:53.309Z,38.49
2022-10-23T05:09:23.331Z,38.44
2022-10-23T05:09:53.357Z,38.48
2022-10-23T05:10:23.406Z,38.45
2022-10-23T05:10:53.435Z,38.46
2022-10-23T05:11:23.465Z,38.48
2022-10-23T05:11:53.491Z,38.44
2022-10-23T05:12:23.518Z,38.49
2022-10-23T05:12:53.545Z,38.44
2022-10-23T05:13:23.574Z,38.46
2022-10-23T05:13:53.598Z,38.45
2022-10-23T05:14:23.625Z,38.45
2022-10-23T05:14:53.652Z,38.50
2022-10-23T05:15:23.696Z,38.50
2022-10-23T05:15:53.717Z,38.45
2022-10-23T05:16:23.742Z,38.42
2022-10-23T05:16:53.766Z,38.41
2022-10-23T05:17:23.794Z,38.45
2022-10-23T05:17:53.815Z,38.51
2022-10-23T05:18:23.845Z,38.42
2022-10-23T05:18:53.870Z,38.47
2022-10-23T05:19:24.447Z,38.47
2022-10-23T05:19:53.923Z,38.42
2022-10-23T05:20:23.966Z,38.48
2022-10-23T05:20:53.999Z,38.45
2022-10-23T05:21:24.026Z,38.48
2022-10-23T05:21:54.042Z,38.45
2022-10-23T05:22:24.068Z,38.41
2022-10-23T05:22:54.108Z,38.47
2022-10-23T05:23:24.123Z,38.45
2022-10-23T05:23:54.215Z,38.45
2022-10-23T05:24:24.239Z,38.42
2022-10-23T05:24:54.266Z,38.48
2022-10-23T05:25:24.311Z,38.48
2022-10-23T05:25:54.340Z,38.47
2022-10-23T05:26:24.361Z,38.46
2022-10-23T05:26:54.415Z,38.49
2022-10-23T05:27:24.446Z,38.48
2022-10-23T05:27:54.476Z,38.45
2022-10-23T05:28:24.504Z,38.48
2022-10-23T05:28:54.530Z,38.45
2022-10-23T05:29:24.555Z,38.47
2022-10-23T05:29:54.576Z,38.48
2022-10-23T05:30:24.629Z,38.50
2022-10-23T05:30:54.658Z,38.39
2022-10-23T05:31:24.679Z,38.48
2022-10-23T05:31:54.703Z,38.45
2022-10-23T05:32:24.730Z,38.44
2022-10-23T05:32:54.752Z,38.45
2022-10-23T05:33:24.778Z,38.49
2022-10-23T05:33:54.803Z,38.41
2022-10-23T05:34:24.830Z,38.46
2022-10-23T05:34:54.854Z,38.47
2022-10-23T05:35:24.877Z,38.45
2022-10-23T05:35:54.907Z,38.46
2022-10-23T05:36:24.939Z,38.46
2022-10-23T05:36:54.960Z,38.49
2022-10-23T05:37:24.983Z,38.48
2022-10-23T05:37:55.007Z,38.45
2022-10-23T05:38:25.060Z,38.46
2022-10-23T05:38:55.062Z,38.45
2022-10-23T05:39:25.090Z,38.42
2022-10-23T05:39:55.111Z,38.47
2022-10-23T05:40:25.204Z,38.45
2022-10-23T05:40:55.235Z,38.41
2022-10-23T05:41:25.260Z,38.44
2022-10-23T05:41:55.260Z,38.45
2022-10-23T05:42:25.371Z,38.45
2022-10-23T05:42:55.487Z,38.45
2022-10-23T05:43:25.599Z,38.42
2022-10-23T05:43:55.708Z,38.42
2022-10-23T05:44:25.828Z,38.45
2022-10-23T05:44:55.936Z,38.42
2022-10-23T05:45:26.087Z,38.45
2022-10-23T05:45:56.076Z,38.48
2022-10-23T05:46:26.184Z,38.45
2022-10-23T05:46:56.303Z,38.42
2022-10-23T05:47:26.417Z,38.40
2022-10-23T05:48:05.600Z,38.42
2022-10-23T05:48:35.025Z,38.45
2022-10-23T05:48:56.587Z,38.44
2022-10-23T05:49:26.589Z,38.48
2022-10-23T05:49:56.700Z,38.45
2022-10-23T05:50:26.829Z,38.45
2022-10-23T05:50:56.818Z,38.45
2022-10-23T05:51:26.936Z,38.44
2022-10-23T05:51:56.941Z,38.48
2022-10-23T05:52:26.966Z,38.42
2022-10-23T05:52:56.988Z,38.44
2022-10-23T05:53:27.040Z,38.47
2022-10-23T05:53:57.052Z,38.44
2022-10-23T05:54:27.069Z,38.37
2022-10-23T05:54:57.093Z,38.42
2022-10-23T05:55:27.143Z,38.41
2022-10-23T05:55:57.173Z,38.40
2022-10-23T05:56:27.196Z,38.44
2022-10-23T05:56:57.223Z,38.45
2022-10-23T05:57:27.247Z,38.42
2022-10-23T05:57:57.271Z,38.45
2022-10-23T05:58:27.297Z,38.42
2022-10-23T05:58:57.320Z,38.43
2022-10-23T05:59:27.353Z,38.42
2022-10-23T05:59:57.376Z,38.38
2022-10-23T06:00:27.439Z,38.37
2022-10-23T06:00:57.549Z,38.37
2022-10-23T06:01:27.648Z,38.42
2022-10-23T06:01:57.647Z,38.41
2022-10-23T06:02:27.617Z,38.48
2022-10-23T06:02:57.625Z,38.42
2022-10-23T06:03:27.654Z,38.44
2022-10-23T06:03:57.682Z,38.37
2022-10-23T06:04:27.713Z,38.41
2022-10-23T06:04:57.731Z,38.41
2022-10-23T06:05:27.816Z,38.42
2022-10-23T06:05:57.863Z,38.41
2022-10-23T06:06:27.887Z,38.42
2022-10-23T06:06:57.912Z,38.40
2022-10-23T06:07:30.113Z,38.45
2022-10-23T06:07:57.988Z,38.39
2022-10-23T06:08:28.010Z,38.45
2022-10-23T06:08:58.060Z,38.44
2022-10-23T06:09:28.062Z,38.38
2022-10-23T06:09:58.086Z,38.38
2022-10-23T06:10:28.138Z,38.41
2022-10-23T06:10:58.162Z,38.42
2022-10-23T06:11:28.186Z,38.44
2022-10-23T06:11:58.208Z,38.42
2022-10-23T06:12:28.233Z,38.42
2022-10-23T06:12:58.261Z,38.41
2022-10-23T06:13:28.284Z,38.44
2022-10-23T06:13:58.378Z,38.40
2022-10-23T06:14:28.377Z,38.42
2022-10-23T06:14:58.402Z,38.42
2022-10-23T06:15:28.440Z,38.45
2022-10-23T06:15:58.457Z,38.45
2022-10-23T06:16:28.485Z,38.42
2022-10-23T06:16:58.508Z,38.41
2022-10-23T06:17:28.534Z,38.47
2022-10-23T06:17:58.560Z,38.41
2022-10-23T06:18:28.584Z,38.44
2022-10-23T06:18:58.617Z,38.47
2022-10-23T06:19:28.641Z,38.44
2022-10-23T06:19:58.671Z,38.42
2022-10-23T06:20:28.925Z,38.48
2022-10-23T06:20:58.696Z,38.48
2022-10-23T06:21:28.724Z,38.44
2022-10-23T06:21:58.754Z,38.45
2022-10-23T06:22:28.783Z,38.44
2022-10-23T06:22:58.797Z,38.49
2022-10-23T06:23:28.823Z,38.44
2022-10-23T06:23:58.845Z,38.46
2022-10-23T06:24:28.887Z,38.49
2022-10-23T06:24:58.891Z,38.46
2022-10-23T06:25:28.928Z,38.42
2022-10-23T06:25:58.958Z,38.45
2022-10-23T06:26:28.980Z,38.44
2022-10-23T06:26:59.020Z,38.46
2022-10-23T06:27:29.060Z,38.46
2022-10-23T06:27:59.078Z,38.46
2022-10-23T06:28:29.113Z,38.42